createdAt,value
2023-02-25T00:00:02.362Z,993.82
2023-02-25T00:01:01.167Z,993.82
2023-02-25T00:02:04.060Z,993.86
2023-02-25T00:03:02.137Z,993.82
2023-02-25T00:04:01.095Z,993.82
2023-02-25T00:05:00.769Z,993.88
2023-02-25T00:06:01.718Z,993.82
2023-02-25T00:07:01.702Z,993.86
2023-02-25T00:08:01.374Z,993.76
2023-02-25T00:09:02.169Z,993.85
2023-02-25T00:10:01.923Z,993.76
2023-02-25T00:11:01.141Z,993.73
2023-02-25T00:12:01.070Z,993.76
2023-02-25T00:13:17.121Z,993.7
2023-02-25T00:14:01.120Z,993.73
2023-02-25T00:15:01.194Z,993.71
2023-02-25T00:16:00.832Z,993.73
2023-02-25T00:17:01.221Z,993.74
2023-02-25T00:18:02.106Z,993.68
2023-02-25T00:19:01.058Z,993.69
2023-02-25T00:20:01.159Z,993.7
2023-02-25T00:21:01.181Z,993.75
2023-02-25T00:22:01.418Z,993.73
2023-02-25T00:23:01.410Z,993.68
2023-02-25T00:24:15.218Z,993.74
2023-02-25T00:25:02.583Z,993.63
2023-02-25T00:26:01.194Z,993.68
2023-02-25T00:27:01.150Z,993.68
2023-02-25T00:28:01.119Z,993.67
2023-02-25T00:29:00.937Z,993.74
2023-02-25T00:30:01.514Z,993.66
2023-02-25T00:31:01.011Z,993.68
2023-02-25T00:32:01.395Z,993.68
2023-02-25T00:33:01.216Z,993.62
2023-02-25T00:34:01.070Z,993.65
2023-02-25T00:35:01.161Z,993.67
2023-02-25T00:36:01.155Z,993.64
2023-02-25T00:37:01.530Z,993.69
2023-02-25T00:38:15.054Z,993.64
2023-02-25T00:39:01.202Z,993.64
2023-02-25T00:40:01.109Z,993.58
2023-02-25T00:41:01.097Z,993.55
2023-02-25T00:42:01.095Z,993.57
2023-02-25T00:43:00.754Z,993.58
2023-02-25T00:44:00.594Z,993.54
2023-02-25T00:45:00.291Z,993.55
2023-02-25T00:46:00.122Z,993.51
2023-02-25T00:46:59.883Z,993.55
2023-02-25T00:47:59.603Z,993.51
2023-02-25T00:49:01.203Z,993.5
2023-02-25T00:50:01.158Z,993.46
2023-02-25T00:51:01.066Z,993.49
2023-02-25T00:52:01.071Z,993.48
2023-02-25T00:53:01.172Z,993.47
2023-02-25T00:54:26.330Z,993.46
2023-02-25T00:55:02.634Z,993.42
2023-02-25T00:56:03.172Z,993.51
2023-02-25T00:57:01.094Z,993.46
2023-02-25T00:58:01.920Z,993.48
2023-02-25T00:59:01.118Z,993.48
2023-02-25T01:00:01.180Z,993.46
2023-02-25T01:01:05.611Z,993.45
2023-02-25T01:02:01.244Z,993.41
2023-02-25T01:03:01.996Z,993.45
2023-02-25T01:04:00.939Z,993.36
2023-02-25T01:05:01.361Z,993.4
2023-02-25T01:06:08.938Z,993.36
2023-02-25T01:07:03.624Z,993.44
2023-02-25T01:08:01.170Z,993.39
2023-02-25T01:09:01.562Z,993.36
2023-02-25T01:10:01.074Z,993.38
2023-02-25T01:11:13.416Z,993.44
2023-02-25T01:12:01.080Z,993.46
2023-02-25T01:13:01.090Z,993.48
2023-02-25T01:14:01.494Z,993.5
2023-02-25T01:15:01.274Z,993.47
2023-02-25T01:16:16.846Z,993.46
2023-02-25T01:17:02.508Z,993.41
2023-02-25T01:18:01.928Z,993.37
2023-02-25T01:19:01.090Z,993.34
2023-02-25T01:20:01.135Z,993.34
2023-02-25T01:21:01.190Z,993.32
2023-02-25T01:22:01.514Z,993.33
2023-02-25T01:23:01.533Z,993.35
2023-02-25T01:24:01.451Z,993.29
2023-02-25T01:25:02.403Z,993.32
2023-02-25T01:26:02.101Z,993.35
2023-02-25T01:27:04.529Z,993.26
2023-02-25T01:28:01.084Z,993.28
2023-02-25T01:29:01.804Z,993.23
2023-02-25T01:30:02.146Z,993.28
2023-02-25T01:31:02.618Z,993.32
2023-02-25T01:32:02.065Z,993.27
2023-02-25T01:33:01.509Z,993.32
2023-02-25T01:34:01.913Z,993.32
2023-02-25T01:35:01.156Z,993.27
2023-02-25T01:36:01.128Z,993.21
2023-02-25T01:37:01.190Z,993.26
2023-02-25T01:38:01.149Z,993.3
2023-02-25T01:39:01.175Z,993.22
2023-02-25T01:40:01.321Z,993.2
2023-02-25T01:41:01.270Z,993.26
2023-02-25T01:42:01.060Z,993.24
2023-02-25T01:43:01.087Z,993.33
2023-02-25T01:44:01.076Z,993.28
2023-02-25T01:45:01.103Z,993.27
2023-02-25T01:46:01.100Z,993.26
2023-02-25T01:47:01.199Z,993.25
2023-02-25T01:48:01.105Z,993.24
2023-02-25T01:49:01.101Z,993.27
2023-02-25T01:50:01.520Z,993.21
2023-02-25T01:51:01.516Z,993.23
2023-02-25T01:52:01.144Z,993.28
2023-02-25T01:53:01.146Z,993.29
2023-02-25T01:54:01.064Z,993.14
2023-02-25T01:55:01.070Z,993.15
2023-02-25T01:56:01.068Z,993.19
2023-02-25T01:57:01.283Z,993.2
2023-02-25T01:58:01.994Z,993.13
2023-02-25T01:59:02.518Z,993.19
2023-02-25T02:00:01.189Z,993.14
2023-02-25T02:01:02.064Z,993.16
2023-02-25T02:02:01.204Z,993.22
2023-02-25T02:03:01.407Z,993.13
2023-02-25T02:04:01.103Z,993.18
2023-02-25T02:05:01.258Z,993.19
2023-02-25T02:06:01.146Z,993.23
2023-02-25T02:07:01.384Z,993.1
2023-02-25T02:08:01.521Z,993.13
2023-02-25T02:09:02.232Z,993.11
2023-02-25T02:10:01.318Z,993.15
2023-02-25T02:11:02.494Z,993.06
2023-02-25T02:12:01.165Z,993.13
2023-02-25T02:13:01.172Z,993.06
2023-02-25T02:14:01.078Z,993.06
2023-02-25T02:15:01.205Z,993
2023-02-25T02:16:01.138Z,993.08
2023-02-25T02:17:01.189Z,993.12
2023-02-25T02:18:00.297Z,993.07
2023-02-25T02:18:59.933Z,993.14
2023-02-25T02:19:59.660Z,993.05
2023-02-25T02:21:01.810Z,993.05
2023-02-25T02:22:01.122Z,993.06
2023-02-25T02:23:01.130Z,993.09
2023-02-25T02:24:01.148Z,993.14
2023-02-25T02:25:01.409Z,993.11
2023-02-25T02:26:01.856Z,993.08
2023-02-25T02:27:02.117Z,993.08
2023-02-25T02:28:01.179Z,993.07
2023-02-25T02:29:01.181Z,993.05
2023-02-25T02:30:01.507Z,993.07
2023-02-25T02:31:01.512Z,993.07
2023-02-25T02:32:02.717Z,993.01
2023-02-25T02:33:01.129Z,993.09
2023-02-25T02:34:01.091Z,993.03
2023-02-25T02:35:01.511Z,993.06
2023-02-25T02:36:01.133Z,993.05
2023-02-25T02:37:06.196Z,993.02
2023-02-25T02:38:02.112Z,993.01
2023-02-25T02:39:01.176Z,993.05
2023-02-25T02:40:01.123Z,993.01
2023-02-25T02:41:01.054Z,993
2023-02-25T02:42:08.798Z,993.02
2023-02-25T02:43:01.161Z,993.06
2023-02-25T02:44:01.066Z,993.04
2023-02-25T02:45:01.161Z,993.07
2023-02-25T02:46:01.089Z,993.04
2023-02-25T02:47:10.908Z,993.05
2023-02-25T02:48:01.464Z,993.08
2023-02-25T02:49:01.054Z,993.06
2023-02-25T02:50:01.077Z,993.09
2023-02-25T02:51:01.763Z,993.13
2023-02-25T02:52:14.734Z,993.12
2023-02-25T02:53:01.094Z,993.17
2023-02-25T02:54:01.717Z,993.09
2023-02-25T02:55:01.155Z,993.09
2023-02-25T02:56:01.276Z,993.12
2023-02-25T02:57:16.815Z,993.07
2023-02-25T02:58:01.138Z,993.15
2023-02-25T02:59:02.330Z,993.07
2023-02-25T03:00:01.163Z,993.11
2023-02-25T03:01:01.212Z,993.07
2023-02-25T03:02:01.866Z,993.08
2023-02-25T03:03:02.604Z,993.06
2023-02-25T03:04:01.635Z,993.09
2023-02-25T03:05:01.458Z,993.13
2023-02-25T03:06:02.133Z,993.14
2023-02-25T03:07:01.557Z,993.12
2023-02-25T03:08:01.094Z,993.13
2023-02-25T03:09:01.101Z,993.16
2023-02-25T03:10:01.113Z,993.08
2023-02-25T03:11:01.089Z,993.14
2023-02-25T03:12:01.069Z,993.14
2023-02-25T03:13:01.544Z,993.15
2023-02-25T03:14:01.542Z,993.15
2023-02-25T03:15:01.177Z,993.14
2023-02-25T03:16:01.166Z,993.1
2023-02-25T03:17:01.246Z,993.12
2023-02-25T03:18:01.962Z,993.2
2023-02-25T03:19:01.968Z,993.19
2023-02-25T03:20:01.124Z,993.15
2023-02-25T03:21:01.490Z,993.13
2023-02-25T03:22:01.148Z,993.12
2023-02-25T03:23:01.092Z,993.15
2023-02-25T03:24:00.711Z,993.03
2023-02-25T03:25:00.373Z,993.18
2023-02-25T03:26:00.100Z,993.16
2023-02-25T03:26:59.777Z,993.11
2023-02-25T03:28:01.958Z,993.16
2023-02-25T03:29:02.512Z,993.24
2023-02-25T03:30:01.146Z,993.17
2023-02-25T03:31:01.281Z,993.21
2023-02-25T03:32:01.250Z,993.2
2023-02-25T03:33:01.206Z,993.2
2023-02-25T03:34:03.406Z,993.31
2023-02-25T03:35:01.223Z,993.24
2023-02-25T03:36:01.087Z,993.28
2023-02-25T03:37:01.207Z,993.27
2023-02-25T03:38:01.982Z,993.27
2023-02-25T03:39:00.832Z,993.29
2023-02-25T03:40:00.604Z,993.37
2023-02-25T03:41:00.324Z,993.33
2023-02-25T03:41:59.978Z,993.29
2023-02-25T03:42:59.905Z,993.34
2023-02-25T03:43:59.569Z,993.33
2023-02-25T03:45:02.221Z,993.42
2023-02-25T03:46:01.553Z,993.39
2023-02-25T03:47:01.150Z,993.46
2023-02-25T03:48:01.142Z,993.39
2023-02-25T03:49:00.762Z,993.47
2023-02-25T03:50:00.446Z,993.36
2023-02-25T03:51:00.141Z,993.45
2023-02-25T03:51:59.722Z,993.33
2023-02-25T03:53:01.314Z,993.43
2023-02-25T03:54:02.004Z,993.45
2023-02-25T03:55:02.064Z,993.46
2023-02-25T03:56:01.106Z,993.44
2023-02-25T03:57:01.373Z,993.49
2023-02-25T03:58:01.110Z,993.47
2023-02-25T03:59:01.107Z,993.54
2023-02-25T04:00:01.145Z,993.48
2023-02-25T04:01:01.491Z,993.59
2023-02-25T04:02:01.174Z,993.51
2023-02-25T04:03:01.578Z,993.53
2023-02-25T04:04:01.141Z,993.56
2023-02-25T04:05:01.226Z,993.55
2023-02-25T04:06:01.158Z,993.55
2023-02-25T04:07:01.156Z,993.58
2023-02-25T04:08:01.803Z,993.6
2023-02-25T04:09:01.788Z,993.57
2023-02-25T04:10:02.581Z,993.56
2023-02-25T04:11:02.448Z,993.59
2023-02-25T04:12:01.082Z,993.65
2023-02-25T04:13:03.473Z,993.62
2023-02-25T04:14:01.519Z,993.62
2023-02-25T04:15:01.129Z,993.65
2023-02-25T04:16:01.195Z,993.69
2023-02-25T04:17:01.120Z,993.6
2023-02-25T04:18:05.832Z,993.68
2023-02-25T04:19:01.055Z,993.64
2023-02-25T04:20:01.129Z,993.59
2023-02-25T04:21:01.168Z,993.67
2023-02-25T04:22:01.163Z,993.63
2023-02-25T04:23:09.220Z,993.71
2023-02-25T04:24:01.168Z,993.7
2023-02-25T04:25:01.056Z,993.69
2023-02-25T04:26:01.090Z,993.63
2023-02-25T04:27:01.046Z,993.68
2023-02-25T04:28:10.959Z,993.67
2023-02-25T04:29:01.432Z,993.69
2023-02-25T04:30:01.107Z,993.73
2023-02-25T04:31:01.224Z,993.73
2023-02-25T04:32:02.021Z,993.71
2023-02-25T04:33:13.642Z,993.68
2023-02-25T04:34:02.033Z,993.81
2023-02-25T04:35:01.910Z,993.81
2023-02-25T04:36:01.146Z,993.68
2023-02-25T04:37:01.150Z,993.73
2023-02-25T04:38:16.358Z,993.72
2023-02-25T04:39:01.544Z,993.72
2023-02-25T04:40:02.571Z,993.77
2023-02-25T04:41:01.754Z,993.79
2023-02-25T04:42:01.105Z,993.78
2023-02-25T04:43:01.051Z,993.76
2023-02-25T04:44:01.080Z,993.8
2023-02-25T04:45:01.072Z,993.79
2023-02-25T04:46:01.123Z,993.77
2023-02-25T04:47:01.116Z,993.79
2023-02-25T04:48:01.227Z,993.81
2023-02-25T04:49:03.906Z,993.8
2023-02-25T04:50:01.134Z,993.83
2023-02-25T04:51:01.143Z,993.8
2023-02-25T04:52:01.145Z,993.82
2023-02-25T04:53:01.130Z,993.85
2023-02-25T04:54:01.158Z,993.82
2023-02-25T04:55:01.359Z,993.81
2023-02-25T04:56:01.169Z,993.83
2023-02-25T04:57:01.102Z,993.83
2023-02-25T04:58:01.094Z,993.82
2023-02-25T04:59:01.430Z,993.9
2023-02-25T05:00:01.168Z,993.85
2023-02-25T05:01:01.104Z,993.85
2023-02-25T05:02:01.134Z,993.8
2023-02-25T05:03:01.174Z,993.77
2023-02-25T05:04:01.078Z,993.86
2023-02-25T05:05:01.103Z,993.87
2023-02-25T05:06:01.395Z,993.84
2023-02-25T05:07:01.398Z,993.88
2023-02-25T05:08:01.510Z,993.88
2023-02-25T05:09:01.138Z,993.89
2023-02-25T05:10:01.757Z,993.84
2023-02-25T05:11:01.814Z,993.87
2023-02-25T05:12:01.220Z,993.88
2023-02-25T05:13:01.184Z,993.92
2023-02-25T05:14:01.309Z,993.92
2023-02-25T05:15:01.488Z,993.91
2023-02-25T05:16:01.974Z,993.87
2023-02-25T05:17:01.087Z,993.89
2023-02-25T05:18:01.112Z,993.92
2023-02-25T05:19:01.099Z,993.84
2023-02-25T05:20:01.169Z,993.85
2023-02-25T05:21:01.140Z,993.88
2023-02-25T05:22:01.479Z,993.82
2023-02-25T05:23:01.141Z,993.8
2023-02-25T05:24:01.246Z,993.85
2023-02-25T05:25:00.741Z,993.84
2023-02-25T05:26:00.339Z,993.78
2023-02-25T05:27:00.029Z,993.83
2023-02-25T05:27:59.726Z,993.88
2023-02-25T05:29:01.767Z,993.91
2023-02-25T05:30:01.255Z,993.94
2023-02-25T05:31:02.155Z,993.91
2023-02-25T05:32:02.404Z,993.95
2023-02-25T05:33:01.169Z,993.9
2023-02-25T05:34:01.017Z,993.97
2023-02-25T05:35:00.788Z,993.95
2023-02-25T05:36:00.420Z,993.95
2023-02-25T05:37:00.077Z,993.94
2023-02-25T05:37:59.775Z,993.96
2023-02-25T05:39:01.453Z,993.96
2023-02-25T05:40:02.139Z,993.96
2023-02-25T05:41:02.388Z,993.98
2023-02-25T05:42:01.449Z,994.02
2023-02-25T05:43:01.456Z,994.04
2023-02-25T05:44:01.116Z,993.95
2023-02-25T05:45:01.357Z,994.04
2023-02-25T05:46:01.077Z,994.04
2023-02-25T05:47:01.909Z,994.07
2023-02-25T05:48:01.266Z,994.08
2023-02-25T05:49:02.108Z,994.09
2023-02-25T05:50:01.812Z,994.08
2023-02-25T05:51:01.832Z,994.14
2023-02-25T05:52:01.242Z,994.14
2023-02-25T05:53:01.930Z,994.14
2023-02-25T05:54:01.070Z,994.18
2023-02-25T05:55:00.698Z,994.07
2023-02-25T05:56:00.425Z,994.16
2023-02-25T05:57:00.138Z,994.21
2023-02-25T05:57:59.796Z,994.26
2023-02-25T05:59:01.755Z,994.2
2023-02-25T06:00:01.443Z,994.22
2023-02-25T06:01:02.188Z,994.29
2023-02-25T06:02:02.155Z,994.28
2023-02-25T06:03:01.161Z,994.33
2023-02-25T06:04:03.292Z,994.27
2023-02-25T06:05:01.094Z,994.33
2023-02-25T06:06:01.068Z,994.35
2023-02-25T06:07:01.099Z,994.33
2023-02-25T06:08:01.122Z,994.29
2023-02-25T06:09:05.399Z,994.39
2023-02-25T06:10:01.871Z,994.44
2023-02-25T06:11:02.322Z,994.49
2023-02-25T06:12:01.535Z,994.46
2023-02-25T06:13:01.950Z,994.49
2023-02-25T06:14:09.042Z,994.45
2023-02-25T06:15:03.760Z,994.49
2023-02-25T06:16:01.617Z,994.48
2023-02-25T06:17:01.160Z,994.5
2023-02-25T06:18:01.233Z,994.53
2023-02-25T06:19:11.179Z,994.54
2023-02-25T06:20:02.910Z,994.6
2023-02-25T06:21:01.069Z,994.6
2023-02-25T06:22:01.057Z,994.67
2023-02-25T06:23:01.088Z,994.67
2023-02-25T06:24:14.122Z,994.73
2023-02-25T06:25:01.120Z,994.68
2023-02-25T06:26:00.708Z,994.7
2023-02-25T06:27:00.420Z,994.71
2023-02-25T06:28:00.018Z,994.77
2023-02-25T06:29:15.143Z,994.79
2023-02-25T06:30:01.567Z,994.8
2023-02-25T06:31:01.292Z,994.81
2023-02-25T06:32:01.359Z,994.84
2023-02-25T06:33:02.098Z,994.83
2023-02-25T06:34:01.092Z,994.81
2023-02-25T06:35:01.407Z,994.91
2023-02-25T06:36:01.093Z,994.92
2023-02-25T06:37:01.115Z,994.89
2023-02-25T06:38:01.083Z,994.96
2023-02-25T06:39:01.061Z,994.89
2023-02-25T06:40:00.989Z,994.93
2023-02-25T06:41:01.050Z,994.88
2023-02-25T06:42:01.126Z,994.96
2023-02-25T06:43:01.120Z,994.98
2023-02-25T06:44:01.123Z,995.05
2023-02-25T06:45:01.050Z,995
2023-02-25T06:46:01.075Z,995.09
2023-02-25T06:47:00.850Z,995.1
2023-02-25T06:48:00.742Z,995.1
2023-02-25T06:49:00.733Z,995.16
2023-02-25T06:50:02.459Z,995.07
2023-02-25T06:51:01.717Z,995.08
2023-02-25T06:52:01.429Z,995.15
2023-02-25T06:53:02.625Z,995.17
2023-02-25T06:54:01.076Z,995.17
2023-02-25T06:55:01.370Z,995.18
2023-02-25T06:56:01.802Z,995.21
2023-02-25T06:57:01.321Z,995.33
2023-02-25T06:58:01.131Z,995.26
2023-02-25T06:59:01.129Z,995.26
2023-02-25T07:00:01.049Z,995.36
2023-02-25T07:01:01.194Z,995.36
2023-02-25T07:02:01.137Z,995.33
2023-02-25T07:03:01.352Z,995.32
2023-02-25T07:04:01.268Z,995.35
2023-02-25T07:05:01.076Z,995.42
2023-02-25T07:06:01.282Z,995.4
2023-02-25T07:07:01.047Z,995.45
2023-02-25T07:08:00.866Z,995.47
2023-02-25T07:09:01.467Z,995.49
2023-02-25T07:10:01.208Z,995.49
2023-02-25T07:11:01.096Z,995.41
2023-02-25T07:12:01.112Z,995.54
2023-02-25T07:13:01.119Z,995.49
2023-02-25T07:14:01.122Z,995.47
2023-02-25T07:15:01.449Z,995.51
2023-02-25T07:16:01.550Z,995.56
2023-02-25T07:17:01.621Z,995.54
2023-02-25T07:18:01.134Z,995.5
2023-02-25T07:19:02.292Z,995.58
2023-02-25T07:20:01.151Z,995.6
2023-02-25T07:21:01.160Z,995.59
2023-02-25T07:22:01.169Z,995.59
2023-02-25T07:23:01.081Z,995.66
2023-02-25T07:24:01.087Z,995.64
2023-02-25T07:25:00.842Z,995.65
2023-02-25T07:26:01.209Z,995.61
2023-02-25T07:27:00.784Z,995.72
2023-02-25T07:28:01.103Z,995.76
2023-02-25T07:29:01.052Z,995.71
2023-02-25T07:30:01.165Z,995.77
2023-02-25T07:31:01.193Z,995.74
2023-02-25T07:32:01.409Z,995.78
2023-02-25T07:33:02.942Z,995.77
2023-02-25T07:34:01.247Z,995.79
2023-02-25T07:35:01.145Z,995.76
2023-02-25T07:36:01.154Z,995.77
2023-02-25T07:37:01.261Z,995.82
2023-02-25T07:38:01.132Z,995.87
2023-02-25T07:39:01.475Z,995.88
2023-02-25T07:40:00.824Z,995.84
2023-02-25T07:41:00.459Z,995.85
2023-02-25T07:42:00.043Z,995.9
2023-02-25T07:42:59.659Z,995.88
2023-02-25T07:44:01.757Z,995.88
2023-02-25T07:45:02.343Z,995.9
2023-02-25T07:46:02.240Z,995.95
2023-02-25T07:47:00.911Z,995.94
2023-02-25T07:48:01.526Z,995.97
2023-02-25T07:49:01.065Z,996
2023-02-25T07:50:03.668Z,995.99
2023-02-25T07:51:01.146Z,995.98
2023-02-25T07:52:01.173Z,996.02
2023-02-25T07:53:01.578Z,996.04
2023-02-25T07:54:00.649Z,996.05
2023-02-25T07:55:06.014Z,996.08
2023-02-25T07:56:02.817Z,996.1
2023-02-25T07:57:01.470Z,996.02
2023-02-25T07:58:01.989Z,996.11
2023-02-25T07:59:01.105Z,996.09
2023-02-25T08:00:09.472Z,996.12
2023-02-25T08:01:01.113Z,996.1
2023-02-25T08:02:01.138Z,996.06
2023-02-25T08:03:01.161Z,996.1
2023-02-25T08:04:01.442Z,996.14
2023-02-25T08:05:11.936Z,996.19
2023-02-25T08:06:01.195Z,996.16
2023-02-25T08:07:00.617Z,996.19
2023-02-25T08:08:00.322Z,996.23
2023-02-25T08:08:59.906Z,996.18
2023-02-25T08:10:13.731Z,996.24
2023-02-25T08:11:01.172Z,996.31
2023-02-25T08:12:01.074Z,996.28
2023-02-25T08:13:01.089Z,996.3
2023-02-25T08:14:01.137Z,996.34
2023-02-25T08:15:16.751Z,996.28
2023-02-25T08:16:01.393Z,996.38
2023-02-25T08:17:02.436Z,996.31
2023-02-25T08:18:01.125Z,996.28
2023-02-25T08:19:01.121Z,996.33
2023-02-25T08:20:01.113Z,996.28
2023-02-25T08:21:02.855Z,996.36
2023-02-25T08:22:01.333Z,996.35
2023-02-25T08:23:01.339Z,996.41
2023-02-25T08:24:01.352Z,996.34
2023-02-25T08:25:01.366Z,996.39
2023-02-25T08:26:01.174Z,996.4
2023-02-25T08:27:02.027Z,996.44
2023-02-25T08:28:01.427Z,996.44
2023-02-25T08:29:01.112Z,996.44
2023-02-25T08:30:01.082Z,996.47
2023-02-25T08:31:01.239Z,996.5
2023-02-25T08:32:01.766Z,996.47
2023-02-25T08:33:01.477Z,996.47
2023-02-25T08:34:01.474Z,996.52
2023-02-25T08:35:02.135Z,996.48
2023-02-25T08:36:01.131Z,996.54
2023-02-25T08:37:01.131Z,996.56
2023-02-25T08:38:00.844Z,996.55
2023-02-25T08:39:00.616Z,996.61
2023-02-25T08:40:00.318Z,996.57
2023-02-25T08:41:00.036Z,996.6
2023-02-25T08:41:59.988Z,996.59
2023-02-25T08:42:59.741Z,996.64
2023-02-25T08:44:01.584Z,996.61
2023-02-25T08:45:01.478Z,996.72
2023-02-25T08:46:01.467Z,996.58
2023-02-25T08:47:00.864Z,996.65
2023-02-25T08:48:01.104Z,996.74
2023-02-25T08:49:01.267Z,996.69
2023-02-25T08:50:02.009Z,996.74
2023-02-25T08:51:01.403Z,996.75
2023-02-25T08:52:01.472Z,996.74
2023-02-25T08:53:01.547Z,996.72
2023-02-25T08:54:01.500Z,996.71
2023-02-25T08:55:01.440Z,996.81
2023-02-25T08:56:01.062Z,996.78
2023-02-25T08:57:01.174Z,996.81
2023-02-25T08:58:01.196Z,996.8
2023-02-25T08:59:01.210Z,996.85
2023-02-25T09:00:01.169Z,996.82
2023-02-25T09:01:01.451Z,996.87
2023-02-25T09:02:01.453Z,996.85
2023-02-25T09:03:01.440Z,996.94
2023-02-25T09:04:01.716Z,996.88
2023-02-25T09:05:01.726Z,996.94
2023-02-25T09:06:02.022Z,996.88
2023-02-25T09:07:01.599Z,996.91
2023-02-25T09:08:01.136Z,997
2023-02-25T09:09:01.118Z,997
2023-02-25T09:10:01.208Z,996.92
2023-02-25T09:11:01.128Z,997.02
2023-02-25T09:12:01.574Z,997.01
2023-02-25T09:13:01.155Z,996.99
2023-02-25T09:14:01.393Z,997.03
2023-02-25T09:15:01.215Z,997.05
2023-02-25T09:16:01.210Z,997.01
2023-02-25T09:17:01.061Z,997.07
2023-02-25T09:18:01.079Z,997
2023-02-25T09:19:01.156Z,997.09
2023-02-25T09:20:01.202Z,997.15
2023-02-25T09:21:04.016Z,997.14
2023-02-25T09:22:01.374Z,997.14
2023-02-25T09:23:01.222Z,997.13
2023-02-25T09:24:01.127Z,997.17
2023-02-25T09:25:01.117Z,997.17
2023-02-25T09:26:01.116Z,997.24
2023-02-25T09:27:01.337Z,997.18
2023-02-25T09:28:00.847Z,997.22
2023-02-25T09:29:00.427Z,997.21
2023-02-25T09:30:00.124Z,997.23
2023-02-25T09:30:59.972Z,997.28
2023-02-25T09:31:59.738Z,997.26
2023-02-25T09:33:01.952Z,997.29
2023-02-25T09:34:01.086Z,997.35
2023-02-25T09:35:01.543Z,997.3
2023-02-25T09:36:01.023Z,997.33
2023-02-25T09:37:01.481Z,997.31
2023-02-25T09:38:01.067Z,997.37
2023-02-25T09:39:01.123Z,997.38
2023-02-25T09:40:01.136Z,997.4
2023-02-25T09:41:04.475Z,997.4
2023-02-25T09:42:01.799Z,997.44
2023-02-25T09:43:01.120Z,997.45
2023-02-25T09:44:01.289Z,997.47
2023-02-25T09:45:01.290Z,997.47
2023-02-25T09:46:07.078Z,997.47
2023-02-25T09:47:01.160Z,997.48
2023-02-25T09:48:00.910Z,997.49
2023-02-25T09:49:01.170Z,997.58
2023-02-25T09:50:01.069Z,997.56
2023-02-25T09:51:10.250Z,997.57
2023-02-25T09:52:01.676Z,997.54
2023-02-25T09:53:01.492Z,997.61
2023-02-25T09:54:01.121Z,997.61
2023-02-25T09:55:01.352Z,997.64
2023-02-25T09:56:13.890Z,997.68
2023-02-25T09:57:01.815Z,997.69
2023-02-25T09:58:01.409Z,997.71
2023-02-25T09:59:02.173Z,997.71
2023-02-25T10:00:01.051Z,997.72
2023-02-25T10:01:16.067Z,997.74
2023-02-25T10:02:04.387Z,997.74
2023-02-25T10:03:01.396Z,997.73
2023-02-25T10:04:02.363Z,997.76
2023-02-25T10:05:02.120Z,997.76
2023-02-25T10:06:01.171Z,997.82
2023-02-25T10:07:00.876Z,997.87
2023-02-25T10:08:00.662Z,997.88
2023-02-25T10:09:00.363Z,997.92
2023-02-25T10:10:00.106Z,997.88
2023-02-25T10:10:59.859Z,997.89
2023-02-25T10:12:01.987Z,997.95
2023-02-25T10:13:01.855Z,997.96
2023-02-25T10:14:01.131Z,997.93
2023-02-25T10:15:01.130Z,997.95
2023-02-25T10:16:01.244Z,998
2023-02-25T10:17:02.145Z,998.01
2023-02-25T10:18:01.581Z,998.03
2023-02-25T10:19:01.232Z,998.07
2023-02-25T10:20:02.336Z,998.09
2023-02-25T10:21:01.069Z,998.06
2023-02-25T10:22:01.072Z,998.1
2023-02-25T10:23:01.049Z,998.15
2023-02-25T10:24:01.492Z,998.17
2023-02-25T10:25:01.990Z,998.19
2023-02-25T10:26:01.209Z,998.15
2023-02-25T10:27:01.235Z,998.22
2023-02-25T10:28:01.661Z,998.18
2023-02-25T10:29:02.346Z,998.18
2023-02-25T10:30:03.138Z,998.22
2023-02-25T10:31:01.866Z,998.22
2023-02-25T10:32:02.905Z,998.23
2023-02-25T10:33:01.398Z,998.28
2023-02-25T10:34:03.937Z,998.23
2023-02-25T10:35:03.067Z,998.29
2023-02-25T10:36:01.154Z,998.3
2023-02-25T10:37:01.150Z,998.23
2023-02-25T10:38:01.247Z,998.33
2023-02-25T10:39:01.113Z,998.29
2023-02-25T10:40:02.925Z,998.36
2023-02-25T10:41:01.089Z,998.38
2023-02-25T10:42:02.111Z,998.36
2023-02-25T10:43:01.643Z,998.41
2023-02-25T10:44:01.115Z,998.42
2023-02-25T10:45:01.106Z,998.37
2023-02-25T10:46:01.154Z,998.42
2023-02-25T10:47:01.657Z,998.49
2023-02-25T10:48:01.517Z,998.48
2023-02-25T10:49:01.846Z,998.52
2023-02-25T10:50:01.737Z,998.47
2023-02-25T10:51:01.345Z,998.5
2023-02-25T10:52:01.147Z,998.54
2023-02-25T10:53:01.167Z,998.61
2023-02-25T10:54:01.465Z,998.5
2023-02-25T10:55:01.165Z,998.57
2023-02-25T10:56:01.879Z,998.63
2023-02-25T10:57:01.723Z,998.59
2023-02-25T10:58:02.106Z,998.57
2023-02-25T10:59:01.445Z,998.57
2023-02-25T11:00:01.131Z,998.6
2023-02-25T11:01:01.174Z,998.54
2023-02-25T11:02:01.189Z,998.62
2023-02-25T11:03:01.860Z,998.62
2023-02-25T11:04:01.530Z,998.61
2023-02-25T11:05:01.200Z,998.69
2023-02-25T11:06:01.139Z,998.63
2023-02-25T11:07:01.273Z,998.69
2023-02-25T11:08:01.760Z,998.7
2023-02-25T11:09:01.250Z,998.73
2023-02-25T11:10:01.069Z,998.77
2023-02-25T11:11:01.062Z,998.77
2023-02-25T11:12:01.491Z,998.82
2023-02-25T11:13:01.463Z,998.79
2023-02-25T11:14:04.053Z,998.77
2023-02-25T11:15:01.091Z,998.81
2023-02-25T11:16:01.146Z,998.86
2023-02-25T11:17:01.520Z,998.83
2023-02-25T11:18:01.116Z,998.85
2023-02-25T11:19:01.120Z,998.82
2023-02-25T11:20:01.414Z,998.81
2023-02-25T11:21:01.432Z,998.93
2023-02-25T11:22:02.267Z,998.91
2023-02-25T11:23:01.549Z,998.97
2023-02-25T11:24:01.153Z,998.98
2023-02-25T11:25:01.069Z,998.99
2023-02-25T11:26:01.065Z,999
2023-02-25T11:27:05.858Z,999.02
2023-02-25T11:28:01.118Z,999.03
2023-02-25T11:29:03.847Z,999.02
2023-02-25T11:30:01.098Z,999
2023-02-25T11:31:02.227Z,999.03
2023-02-25T11:32:08.916Z,999.09
2023-02-25T11:33:01.394Z,999.06
2023-02-25T11:34:01.288Z,999.05
2023-02-25T11:35:01.680Z,999.08
2023-02-25T11:36:02.584Z,999.1
2023-02-25T11:37:12.675Z,999.09
2023-02-25T11:38:01.874Z,999.15
2023-02-25T11:39:01.711Z,999.1
2023-02-25T11:40:01.355Z,999.16
2023-02-25T11:41:01.966Z,999.11
2023-02-25T11:42:15.488Z,999.21
2023-02-25T11:43:01.556Z,999.19
2023-02-25T11:44:03.023Z,999.26
2023-02-25T11:45:01.173Z,999.26
2023-02-25T11:46:01.149Z,999.22
2023-02-25T11:47:01.122Z,999.28
2023-02-25T11:48:01.320Z,999.29
2023-02-25T11:49:02.427Z,999.27
2023-02-25T11:50:01.120Z,999.28
2023-02-25T11:51:01.484Z,999.3
2023-02-25T11:52:01.805Z,999.34
2023-02-25T11:53:01.119Z,999.37
2023-02-25T11:54:01.142Z,999.35
2023-02-25T11:55:01.158Z,999.39
2023-02-25T11:56:01.143Z,999.4
2023-02-25T11:57:01.153Z,999.36
2023-02-25T11:58:01.172Z,999.42
2023-02-25T11:59:01.573Z,999.41
2023-02-25T12:00:01.567Z,999.43
2023-02-25T12:01:02.274Z,999.47
2023-02-25T12:02:01.146Z,999.43
2023-02-25T12:03:01.141Z,999.44
2023-02-25T12:04:01.371Z,999.41
2023-02-25T12:05:01.105Z,999.45
2023-02-25T12:05:59.909Z,999.46
2023-02-25T12:06:59.611Z,999.44
2023-02-25T12:08:14.610Z,999.54
2023-02-25T12:09:02.052Z,999.46
2023-02-25T12:10:01.130Z,999.5
2023-02-25T12:11:01.138Z,999.46
2023-02-25T12:12:01.450Z,999.53
2023-02-25T12:13:01.068Z,999.54
2023-02-25T12:14:01.156Z,999.53
2023-02-25T12:15:01.801Z,999.61
2023-02-25T12:16:01.957Z,999.59
2023-02-25T12:17:01.462Z,999.54
2023-02-25T12:18:01.077Z,999.6
2023-02-25T12:19:02.596Z,999.56
2023-02-25T12:20:01.106Z,999.64
2023-02-25T12:21:01.470Z,999.62
2023-02-25T12:22:01.146Z,999.65
2023-02-25T12:23:01.168Z,999.66
2023-02-25T12:24:01.415Z,999.7
2023-02-25T12:25:01.451Z,999.73
2023-02-25T12:26:01.465Z,999.74
2023-02-25T12:27:02.587Z,999.76
2023-02-25T12:28:01.272Z,999.9
2023-02-25T12:29:01.960Z,999.84
2023-02-25T12:30:01.413Z,999.84
2023-02-25T12:31:01.301Z,999.87